Time;durP1;ratioP1;P1;durP2;ratioP2;P2;SDS_P1;SDS_P2;PMS_P1;PMS_P2;Temp;Humidity;BMP_temperature;BMP_pressure;BME280_temperature;BME280_humidity;BME280_pressure;Samples;Min_cycle;Max_cycle;Signal;HPM_P1;HPM_P2
2023/12/31 00:01:16;;;;;;;8.00;5.93;;;;;;;4.74;nan;98978.28;4934585;28;20682;-81
2023/12/31 00:03:41;;;;;;;7.90;7.10;;;;;;;4.77;nan;98968.56;4920109;29;20205;-81
2023/12/31 00:06:07;;;;;;;8.33;6.70;;;;;;;4.80;nan;98971.00;4934472;28;20217;-81
2023/12/31 00:08:32;;;;;;;13.17;7.47;;;;;;;4.82;nan;98955.34;4935567;28;20197;-80
2023/12/31 00:11:00;;;;;;;9.40;6.97;;;;;;;4.78;nan;98939.03;4915629;29;20248;-80
2023/12/31 00:13:28;;;;;;;6.68;5.78;;;;;;;4.67;nan;98933.50;4933816;28;21245;-82
2023/12/31 00:15:54;;;;;;;8.70;6.30;;;;;;;4.62;nan;98923.38;4937170;28;20662;-80
2023/12/31 00:18:19;;;;;;;8.20;6.57;;;;;;;4.64;nan;98929.34;4937493;28;20609;-80
2023/12/31 00:20:45;;;;;;;11.33;5.83;;;;;;;4.66;nan;98926.63;4938204;28;20182;-83
2023/12/31 00:23:11;;;;;;;9.80;6.30;;;;;;;4.68;nan;98917.00;4934542;28;20918;-81
2023/12/31 00:25:40;;;;;;;10.27;8.70;;;;;;;4.72;nan;98918.53;4937304;29;20673;-81
2023/12/31 00:28:05;;;;;;;7.78;6.97;;;;;;;4.75;nan;98914.91;4939852;28;20216;-80
2023/12/31 00:30:31;;;;;;;8.80;7.50;;;;;;;4.73;nan;98909.81;4942790;28;20193;-80
2023/12/31 00:32:56;;;;;;;13.03;8.27;;;;;;;4.69;nan;98903.06;4940307;28;20264;-80
2023/12/31 00:35:22;;;;;;;12.00;8.03;;;;;;;4.69;nan;98897.03;4938566;28;20662;-82
2023/12/31 00:37:48;;;;;;;12.55;8.32;;;;;;;4.69;nan;98891.81;4934766;28;20936;-82
2023/12/31 00:40:14;;;;;;;8.23;7.20;;;;;;;4.72;nan;98891.66;4938383;29;20200;-81
2023/12/31 00:42:39;;;;;;;10.40;7.10;;;;;;;4.72;nan;98897.72;4923880;29;20205;-81
2023/12/31 00:45:06;;;;;;;7.93;6.27;;;;;;;4.72;nan;98891.66;4938471;28;20242;-81
2023/12/31 00:47:31;;;;;;;10.13;6.05;;;;;;;4.68;nan;98882.34;4934495;28;20252;-81
2023/12/31 00:49:56;;;;;;;7.87;6.43;;;;;;;4.67;nan;98889.28;4936254;29;20205;-81
2023/12/31 00:52:22;;;;;;;11.40;5.87;;;;;;;4.65;nan;98886.78;4932876;28;20694;-81
2023/12/31 00:54:50;;;;;;;14.47;6.93;;;;;;;4.65;nan;98884.19;4938772;28;20221;-81
2023/12/31 00:57:16;;;;;;;9.02;7.57;;;;;;;4.62;nan;98875.72;4935867;28;20216;-81
2023/12/31 00:59:42;;;;;;;8.05;5.97;;;;;;;4.58;nan;98869.81;4936795;28;20205;-82
2023/12/31 01:02:08;;;;;;;8.68;6.15;;;;;;;4.54;nan;98867.47;4936507;28;20201;-82
2023/12/31 01:04:33;;;;;;;7.47;5.50;;;;;;;4.53;nan;98857.94;4933379;28;20983;-81
2023/12/31 01:06:59;;;;;;;6.60;5.80;;;;;;;4.51;nan;98857.19;4918135;29;20578;-82
2023/12/31 01:09:24;;;;;;;8.00;5.83;;;;;;;4.41;nan;98844.66;4934797;28;20209;-82
2023/12/31 01:11:49;;;;;;;7.00;6.03;;;;;;;4.33;nan;98848.56;4932256;28;20268;-82
2023/12/31 01:14:16;;;;;;;9.40;6.30;;;;;;;4.26;nan;98837.63;4919420;29;20231;-81
2023/12/31 01:16:41;;;;;;;14.77;6.80;;;;;;;4.20;nan;98849.16;4930432;28;20189;-82
2023/12/31 01:19:07;;;;;;;9.50;5.95;;;;;;;4.20;nan;98840.53;4926396;28;20197;-82
2023/12/31 01:21:33;;;;;;;7.43;5.00;;;;;;;4.20;nan;98830.13;4933024;28;20228;-81
2023/12/31 01:23:59;;;;;;;6.50;5.50;;;;;;;4.18;nan;98827.59;4910274;28;20281;-82
2023/12/31 01:26:24;;;;;;;5.30;4.80;;;;;;;4.20;nan;98835.34;4929658;28;20244;-82
2023/12/31 01:28:49;;;;;;;8.73;5.87;;;;;;;4.20;nan;98833.56;4928750;28;20327;-82
2023/12/31 01:31:19;;;;;;;8.87;6.60;;;;;;;4.17;nan;98825.09;4930761;28;20189;-82
2023/12/31 01:33:45;;;;;;;8.18;6.60;;;;;;;4.17;nan;98825.94;4926283;28;20201;-81
2023/12/31 01:36:15;;;;;;;7.70;5.47;;;;;;;4.21;nan;98811.88;4922503;28;20288;-80
2023/12/31 01:38:42;;;;;;;10.43;7.93;;;;;;;4.26;nan;98801.22;4928715;28;20573;-81
2023/12/31 01:41:09;;;;;;;10.77;6.15;;;;;;;4.29;nan;98803.66;4930947;28;20289;-81
2023/12/31 01:43:36;;;;;;;7.38;6.32;;;;;;;4.32;nan;98794.88;4918504;29;20228;-80
2023/12/31 01:46:10;;;;;;;11.48;7.07;;;;;;;4.32;nan;98774.94;4971257;23;20236;-84
2023/12/31 01:48:39;;;;;;;7.10;5.68;;;;;;;4.35;nan;98789.53;4958544;28;20295;-84
2023/12/31 01:51:07;;;;;;;6.90;4.65;;;;;;;4.35;nan;98779.97;4980502;28;20223;-82
2023/12/31 01:53:32;;;;;;;4.65;3.95;;;;;;;4.40;nan;98784.94;4978808;28;20348;-85
2023/12/31 01:55:58;;;;;;;7.40;5.00;;;;;;;4.43;nan;98774.38;4978784;28;20643;-85
2023/12/31 01:58:25;;;;;;;6.68;5.53;;;;;;;4.44;nan;98768.25;4975362;28;20203;-86
2023/12/31 02:00:51;;;;;;;3.92;3.40;;;;;;;4.46;nan;98779.44;4978148;28;20200;-86
2023/12/31 02:03:17;;;;;;;7.38;4.45;;;;;;;4.48;nan;98769.75;4977963;28;20249;-84
2023/12/31 02:05:43;;;;;;;7.37;4.97;;;;;;;4.49;nan;98766.25;4978751;28;20223;-86
2023/12/31 02:08:08;;;;;;;6.83;5.10;;;;;;;4.49;nan;98761.06;4983702;28;20467;-84
2023/12/31 02:10:34;;;;;;;8.00;5.27;;;;;;;4.51;nan;98754.03;4978805;28;21106;-87
2023/12/31 02:13:00;;;;;;;7.80;4.80;;;;;;;4.54;nan;98758.22;4980932;28;20509;-83
2023/12/31 02:15:30;;;;;;;7.10;5.93;;;;;;;4.56;nan;98756.38;4980884;28;20231;-88
2023/12/31 02:17:59;;;;;;;5.47;4.93;;;;;;;4.61;nan;98749.16;4976552;28;20207;-89
2023/12/31 02:20:24;;;;;;;6.60;5.22;;;;;;;4.64;nan;98739.47;4974641;28;20215;-86
2023/12/31 02:22:50;;;;;;;6.93;5.20;;;;;;;4.62;nan;98737.84;4977504;28;20393;-88
2023/12/31 02:25:18;;;;;;;11.80;6.90;;;;;;;4.53;nan;98739.16;4980228;28;20408;-90
2023/12/31 02:27:44;;;;;;;8.60;7.00;;;;;;;4.49;nan;98737.66;4979004;28;20473;-86
2023/12/31 02:30:13;;;;;;;8.47;6.73;;;;;;;4.47;nan;98729.09;4982104;28;20208;-86
2023/12/31 02:32:38;;;;;;;12.13;7.47;;;;;;;4.44;nan;98731.84;4986094;28;20204;-86
2023/12/31 02:35:04;;;;;;;11.37;7.37;;;;;;;4.41;nan;98724.22;4985663;28;20225;-86
2023/12/31 02:37:30;;;;;;;11.13;8.67;;;;;;;4.44;nan;98721.44;4986118;28;20192;-86
2023/12/31 02:39:55;;;;;;;8.93;7.50;;;;;;;4.46;nan;98724.00;4983685;28;20226;-88
2023/12/31 02:42:21;;;;;;;17.57;8.20;;;;;;;4.48;nan;98720.34;4984280;28;20203;-86
2023/12/31 02:44:46;;;;;;;8.83;8.00;;;;;;;4.46;nan;98717.03;4982623;28;20516;-87
2023/12/31 02:47:12;;;;;;;14.17;9.23;;;;;;;4.47;nan;98720.44;4969590;28;20223;-87
2023/12/31 02:49:37;;;;;;;10.17;8.20;;;;;;;4.49;nan;98714.25;4954064;28;20196;-89
2023/12/31 02:52:03;;;;;;;9.40;7.43;;;;;;;4.53;nan;98702.75;4953191;28;20286;-86
2023/12/31 02:54:29;;;;;;;8.33;7.53;;;;;;;4.54;nan;98695.81;4952770;28;20308;-88
2023/12/31 02:56:55;;;;;;;8.55;6.65;;;;;;;4.56;nan;98678.34;4969531;28;20391;-90
2023/12/31 02:59:21;;;;;;;7.63;6.18;;;;;;;4.55;nan;98681.88;4953737;28;20220;-88
2023/12/31 03:01:46;;;;;;;7.57;6.07;;;;;;;4.55;nan;98680.09;4948942;28;20192;-86
2023/12/31 03:04:11;;;;;;;6.40;4.63;;;;;;;4.56;nan;98673.13;4968205;28;20844;-89
2023/12/31 03:06:41;;;;;;;6.28;5.55;;;;;;;4.59;nan;98670.38;4952604;28;20653;-86
2023/12/31 03:09:06;;;;;;;11.27;8.25;;;;;;;4.57;nan;98659.22;4953954;28;20212;-88
2023/12/31 03:11:36;;;;;;;14.50;7.60;;;;;;;4.54;nan;98662.84;4955108;28;20291;-90
2023/12/31 03:14:01;;;;;;;9.20;5.63;;;;;;;4.51;nan;98660.41;4967927;28;20283;-89
2023/12/31 03:16:27;;;;;;;9.43;6.67;;;;;;;4.48;nan;98639.75;4967084;28;20270;-89
2023/12/31 03:18:53;;;;;;;9.20;5.73;;;;;;;4.47;nan;98632.03;4948087;28;20273;-89
2023/12/31 03:21:18;;;;;;;9.70;6.80;;;;;;;4.50;nan;98624.06;4950024;28;20219;-88
2023/12/31 03:23:44;;;;;;;11.33;6.50;;;;;;;4.54;nan;98618.63;4947976;28;20459;-86
2023/12/31 03:26:09;;;;;;;8.43;6.10;;;;;;;4.57;nan;98618.47;4949428;28;20411;-86
2023/12/31 03:28:36;;;;;;;13.77;5.60;;;;;;;4.56;nan;98619.34;4955360;28;20247;-86
2023/12/31 03:31:03;;;;;;;10.70;8.10;;;;;;;4.57;nan;98610.66;4949631;28;20201;-87
2023/12/31 03:33:32;;;;;;;7.60;6.30;;;;;;;4.60;nan;98609.66;4970995;28;20196;-88
2023/12/31 03:35:57;;;;;;;7.70;6.07;;;;;;;4.63;nan;98606.88;4963889;28;20215;-88
2023/12/31 03:38:23;;;;;;;8.23;6.20;;;;;;;4.63;nan;98601.66;4968769;28;20197;-86
2023/12/31 03:40:48;;;;;;;7.30;5.77;;;;;;;4.64;nan;98600.75;4966307;28;20319;-86
2023/12/31 03:43:14;;;;;;;6.35;5.53;;;;;;;4.66;nan;98602.31;4950405;28;20211;-88
2023/12/31 03:45:40;;;;;;;6.70;5.07;;;;;;;4.64;nan;98596.41;4967321;28;20227;-89
2023/12/31 03:48:06;;;;;;;10.83;6.10;;;;;;;4.63;nan;98602.50;4980073;28;20216;-86
2023/12/31 03:50:31;;;;;;;11.70;7.00;;;;;;;4.64;nan;98591.19;4985946;28;20847;-88
2023/12/31 03:52:56;;;;;;;8.63;5.60;;;;;;;4.62;nan;98594.81;4971965;28;20493;-88
2023/12/31 03:55:23;;;;;;;10.57;7.80;;;;;;;4.60;nan;98591.44;4984220;28;20218;-88
2023/12/31 03:57:49;;;;;;;7.90;5.20;;;;;;;4.58;nan;98594.13;4982866;28;20199;-86
2023/12/31 04:00:17;;;;;;;8.35;6.63;;;;;;;4.57;nan;98592.44;4984947;28;20202;-89
2023/12/31 04:02:43;;;;;;;5.05;4.57;;;;;;;4.55;nan;98589.09;4990079;28;20211;-86
2023/12/31 04:05:08;;;;;;;10.67;7.37;;;;;;;4.51;nan;98591.94;4987370;28;20216;-87
2023/12/31 04:07:34;;;;;;;6.80;6.10;;;;;;;4.49;nan;98599.84;4985643;28;20440;-88
2023/12/31 04:10:00;;;;;;;10.00;9.20;;;;;;;4.49;nan;98599.00;4988958;28;20209;-88
2023/12/31 04:12:26;;;;;;;7.40;6.32;;;;;;;4.50;nan;98585.91;4985686;28;20466;-88
2023/12/31 04:14:52;;;;;;;10.40;7.80;;;;;;;4.49;nan;98580.81;4980582;28;20599;-88
2023/12/31 04:17:18;;;;;;;9.50;6.37;;;;;;;4.46;nan;98576.59;4996100;28;20278;-87
2023/12/31 04:19:45;;;;;;;6.78;5.18;;;;;;;4.44;nan;98578.44;4984983;28;20204;-89
2023/12/31 04:22:10;;;;;;;7.07;5.67;;;;;;;4.35;nan;98576.38;4967379;28;20203;-86
2023/12/31 04:24:36;;;;;;;6.00;4.40;;;;;;;4.28;nan;98572.41;4983301;28;20199;-90
2023/12/31 04:27:01;;;;;;;10.13;5.37;;;;;;;4.25;nan;98580.38;4983631;28;20227;-87
2023/12/31 04:29:27;;;;;;;7.23;5.67;;;;;;;4.25;nan;98576.00;4983140;28;20207;-88
2023/12/31 04:31:52;;;;;;;5.10;4.17;;;;;;;4.25;nan;98570.81;4977400;28;20199;-89
2023/12/31 04:34:18;;;;;;;7.93;5.43;;;;;;;4.25;nan;98564.78;4981383;28;20219;-88
2023/12/31 04:36:44;;;;;;;6.60;4.50;;;;;;;4.20;nan;98563.25;4984694;28;20183;-86
2023/12/31 04:39:11;;;;;;;3.80;3.50;;;;;;;4.18;nan;98557.28;4999343;28;20677;-88
2023/12/31 04:41:36;;;;;;;7.15;4.65;;;;;;;4.18;nan;98552.09;4986526;28;20207;-89
2023/12/31 04:44:02;;;;;;;6.03;5.03;;;;;;;4.18;nan;98556.47;4986190;28;20212;-88
2023/12/31 04:46:27;;;;;;;7.70;4.77;;;;;;;4.16;nan;98559.16;4997503;28;20240;-91
2023/12/31 04:48:52;;;;;;;7.83;3.63;;;;;;;4.14;nan;98557.56;5001953;28;20302;-91
2023/12/31 04:51:29;;;;;;;11.43;6.93;;;;;;;4.16;nan;98572.16;4989581;28;20195;-87
2023/12/31 04:53:55;;;;;;;5.50;4.30;;;;;;;4.17;nan;98563.44;4984807;28;20215;-89
2023/12/31 04:56:22;;;;;;;6.90;4.75;;;;;;;4.21;nan;98582.28;4998663;28;20358;-86
2023/12/31 04:58:52;;;;;;;5.53;5.05;;;;;;;4.22;nan;98591.78;4983379;28;20708;-86
2023/12/31 05:01:18;;;;;;;9.93;5.40;;;;;;;4.25;nan;98603.78;4979349;28;20226;-86
2023/12/31 05:03:45;;;;;;;7.73;5.97;;;;;;;4.25;nan;98595.97;4984593;28;20200;-87
2023/12/31 05:06:15;;;;;;;11.13;7.63;;;;;;;4.27;nan;98594.13;4977276;28;20659;-89
2023/12/31 05:08:44;;;;;;;14.10;7.32;;;;;;;4.33;nan;98606.78;4983856;28;20266;-86
2023/12/31 05:11:11;;;;;;;11.52;7.82;;;;;;;4.37;nan;98592.69;4981732;28;20456;-90
2023/12/31 05:13:37;;;;;;;9.27;7.00;;;;;;;4.39;nan;98616.84;4979960;28;20199;-89
2023/12/31 05:16:03;;;;;;;12.57;6.55;;;;;;;4.39;nan;98615.09;4984996;28;20208;-86
2023/12/31 05:18:29;;;;;;;7.93;5.60;;;;;;;4.37;nan;98619.53;4978126;28;20207;-89
2023/12/31 05:20:55;;;;;;;8.40;7.37;;;;;;;4.35;nan;98599.75;4978859;28;20466;-89
2023/12/31 05:23:21;;;;;;;7.40;6.00;;;;;;;4.35;nan;98608.38;4979996;28;20323;-87
2023/12/31 05:25:46;;;;;;;7.93;6.10;;;;;;;4.38;nan;98615.19;4982252;28;20228;-89
2023/12/31 05:28:12;;;;;;;8.43;6.70;;;;;;;4.41;nan;98604.63;4978942;28;20281;-89
2023/12/31 05:30:41;;;;;;;6.13;5.60;;;;;;;4.36;nan;98606.63;4982528;28;20961;-86
2023/12/31 05:33:07;;;;;;;4.90;3.80;;;;;;;4.37;nan;98608.28;4981516;28;20191;-87
2023/12/31 05:35:32;;;;;;;6.03;5.30;;;;;;;4.36;nan;98593.63;4981744;28;20208;-89
2023/12/31 05:37:58;;;;;;;8.35;6.88;;;;;;;4.35;nan;98590.19;4983719;28;20454;-89
2023/12/31 05:40:23;;;;;;;8.70;6.50;;;;;;;4.36;nan;98589.25;4981141;28;20678;-88
2023/12/31 05:42:51;;;;;;;7.03;5.50;;;;;;;4.38;nan;98591.78;4984559;28;20569;-86
2023/12/31 05:45:19;;;;;;;7.22;6.32;;;;;;;4.41;nan;98591.63;4981497;28;20224;-89
2023/12/31 05:47:46;;;;;;;9.48;6.18;;;;;;;4.43;nan;98600.19;4984329;28;20204;-86
2023/12/31 05:50:12;;;;;;;7.70;5.15;;;;;;;4.46;nan;98593.97;4983069;28;20892;-90
2023/12/31 05:52:37;;;;;;;6.65;5.95;;;;;;;4.45;nan;98598.31;4983679;28;20195;-86
2023/12/31 05:55:03;;;;;;;7.03;5.80;;;;;;;4.43;nan;98598.41;4984705;28;20212;-88
2023/12/31 05:57:29;;;;;;;7.15;6.05;;;;;;;4.44;nan;98602.69;4983009;28;20266;-86
2023/12/31 05:59:55;;;;;;;7.10;5.93;;;;;;;4.45;nan;98603.50;4980842;28;20294;-89
2023/12/31 06:02:20;;;;;;;6.37;5.13;;;;;;;4.47;nan;98586.06;4984524;28;20250;-85
2023/12/31 06:04:45;;;;;;;6.50;6.00;;;;;;;4.48;nan;98592.94;4984234;28;20619;-87
2023/12/31 06:07:11;;;;;;;7.40;5.67;;;;;;;4.50;nan;98595.47;4982149;28;20327;-89
2023/12/31 06:09:36;;;;;;;8.07;5.27;;;;;;;4.52;nan;98591.03;4981240;28;20433;-90
2023/12/31 06:12:02;;;;;;;7.87;5.77;;;;;;;4.55;nan;98585.66;4979394;28;20204;-86
2023/12/31 06:14:27;;;;;;;6.13;5.53;;;;;;;4.58;nan;98585.47;4980477;28;20277;-90
2023/12/31 06:16:52;;;;;;;6.80;6.07;;;;;;;4.60;nan;98588.84;4983547;28;20389;-88
2023/12/31 06:19:18;;;;;;;6.07;5.47;;;;;;;4.58;nan;98575.06;4983020;28;20199;-88
2023/12/31 06:21:43;;;;;;;6.57;5.30;;;;;;;4.58;nan;98567.28;4978986;28;20238;-86
2023/12/31 06:24:09;;;;;;;9.57;7.40;;;;;;;4.60;nan;98581.88;4980442;28;20196;-86
2023/12/31 06:26:34;;;;;;;7.93;6.27;;;;;;;4.61;nan;98565.34;4978871;28;20531;-89
2023/12/31 06:28:59;;;;;;;10.83;5.60;;;;;;;4.64;nan;98572.13;4978577;28;20261;-86
2023/12/31 06:31:25;;;;;;;9.30;7.30;;;;;;;4.66;nan;98558.13;4983359;28;20230;-85
2023/12/31 06:33:51;;;;;;;6.03;5.43;;;;;;;4.67;nan;98564.16;4981896;28;20207;-88
2023/12/31 06:36:17;;;;;;;14.02;7.35;;;;;;;4.66;nan;98565.09;4983531;28;20199;-88
2023/12/31 06:38:43;;;;;;;11.18;9.13;;;;;;;4.68;nan;98568.44;4982905;28;21881;-85
2023/12/31 06:41:08;;;;;;;7.67;6.83;;;;;;;4.69;nan;98553.66;4979072;28;20628;-87
2023/12/31 06:43:37;;;;;;;8.30;7.30;;;;;;;4.68;nan;98552.00;4976838;28;20528;-89
2023/12/31 06:46:03;;;;;;;10.60;8.10;;;;;;;4.65;nan;98543.44;4987352;28;20219;-89
2023/12/31 06:48:29;;;;;;;7.70;6.83;;;;;;;4.64;nan;98549.59;4978374;28;20842;-88
2023/12/31 06:50:54;;;;;;;9.17;7.30;;;;;;;4.63;nan;98550.50;4973872;28;20901;-89
2023/12/31 06:53:23;;;;;;;10.00;8.30;;;;;;;4.64;nan;98556.53;4981234;28;20679;-85
2023/12/31 06:55:48;;;;;;;11.20;7.68;;;;;;;4.63;nan;98542.69;4985110;28;20204;-85
2023/12/31 06:58:14;;;;;;;10.37;7.53;;;;;;;4.63;nan;98547.06;4982950;28;20547;-89
2023/12/31 07:00:40;;;;;;;14.87;10.93;;;;;;;4.61;nan;98552.31;4977203;28;20209;-84
2023/12/31 07:03:06;;;;;;;16.17;11.95;;;;;;;4.59;nan;98551.59;4981071;28;20466;-84
2023/12/31 07:05:31;;;;;;;30.70;21.67;;;;;;;4.58;nan;98549.06;4979017;28;20186;-85
2023/12/31 07:07:57;;;;;;;37.10;21.17;;;;;;;4.57;nan;98548.25;4981383;28;20678;-84
2023/12/31 07:10:23;;;;;;;14.80;11.70;;;;;;;4.56;nan;98537.91;4976767;28;20893;-84
2023/12/31 07:12:49;;;;;;;15.20;12.38;;;;;;;4.54;nan;98547.59;4976637;28;20208;-84
2023/12/31 07:15:15;;;;;;;12.40;8.63;;;;;;;4.51;nan;98538.19;4976367;28;21010;-84
2023/12/31 07:17:41;;;;;;;10.27;9.23;;;;;;;4.50;nan;98538.25;4973738;28;20272;-83
2023/12/31 07:20:08;;;;;;;11.48;8.60;;;;;;;4.51;nan;98534.72;4976878;28;20211;-84
2023/12/31 07:22:33;;;;;;;13.00;8.85;;;;;;;4.51;nan;98543.38;4972613;28;20321;-85
2023/12/31 07:25:00;;;;;;;11.55;9.00;;;;;;;4.53;nan;98535.47;4980676;28;20315;-84
2023/12/31 07:27:29;;;;;;;10.43;8.20;;;;;;;4.54;nan;98537.19;4985067;28;20292;-84
2023/12/31 07:29:57;;;;;;;13.70;8.95;;;;;;;4.53;nan;98533.72;4980074;28;20344;-84
2023/12/31 07:32:23;;;;;;;10.80;9.40;;;;;;;4.54;nan;98513.78;4984876;28;20202;-84
2023/12/31 07:34:48;;;;;;;10.23;8.17;;;;;;;4.56;nan;98514.50;4982475;28;20208;-83
2023/12/31 07:37:13;;;;;;;11.33;8.80;;;;;;;4.53;nan;98520.72;4980665;28;20693;-84
2023/12/31 07:39:42;;;;;;;12.17;9.10;;;;;;;4.55;nan;98513.66;4984870;28;20246;-84
2023/12/31 07:42:07;;;;;;;13.75;10.20;;;;;;;4.57;nan;98513.59;4986448;28;20235;-83
2023/12/31 07:44:33;;;;;;;8.63;7.77;;;;;;;4.57;nan;98509.22;4987701;28;20278;-89
2023/12/31 07:46:59;;;;;;;10.30;7.60;;;;;;;4.61;nan;98505.50;4983211;28;20212;-88
2023/12/31 07:49:24;;;;;;;10.20;8.67;;;;;;;4.65;nan;98503.59;4983034;28;20322;-88
2023/12/31 07:51:50;;;;;;;13.07;7.53;;;;;;;4.68;nan;98510.38;4981730;28;20191;-87
2023/12/31 07:54:16;;;;;;;10.77;8.20;;;;;;;4.69;nan;98502.47;4987527;28;20208;-88
2023/12/31 07:56:41;;;;;;;7.47;6.77;;;;;;;4.70;nan;98496.38;4976554;28;20207;-87
2023/12/31 07:59:08;;;;;;;9.40;6.10;;;;;;;4.72;nan;98499.69;4983170;28;20250;-86
2023/12/31 08:01:33;;;;;;;6.50;6.00;;;;;;;4.71;nan;98503.22;4984203;28;20845;-89
2023/12/31 08:03:59;;;;;;;10.80;8.30;;;;;;;4.73;nan;98493.59;4984148;28;20199;-87
2023/12/31 08:06:26;;;;;;;13.43;8.70;;;;;;;4.77;nan;98489.03;4984486;28;21025;-85
2023/12/31 08:08:52;;;;;;;11.80;10.57;;;;;;;4.85;nan;98498.06;4990356;28;20440;-89
2023/12/31 08:11:18;;;;;;;12.60;9.27;;;;;;;4.91;nan;98502.06;5004052;28;20196;-78
2023/12/31 08:13:44;;;;;;;11.75;7.05;;;;;;;4.96;nan;98491.41;4984901;28;20267;-84
2023/12/31 08:16:09;;;;;;;9.00;7.97;;;;;;;4.98;nan;98485.19;4991531;28;20242;-85
2023/12/31 08:18:35;;;;;;;8.70;6.07;;;;;;;5.01;nan;98489.38;4992301;28;20951;-84
2023/12/31 08:21:00;;;;;;;8.80;6.83;;;;;;;5.03;nan;98482.31;4990677;28;20195;-83
2023/12/31 08:23:26;;;;;;;8.67;7.10;;;;;;;5.05;nan;98473.50;4991796;28;20229;-83
2023/12/31 08:25:51;;;;;;;7.23;5.97;;;;;;;5.03;nan;98474.50;4988041;28;20200;-84
2023/12/31 08:28:17;;;;;;;8.70;5.00;;;;;;;5.00;nan;98472.09;4985302;28;20208;-83
2023/12/31 08:30:42;;;;;;;7.70;6.27;;;;;;;4.98;nan;98477.38;4987547;28;20203;-85
2023/12/31 08:33:08;;;;;;;8.37;6.27;;;;;;;5.00;nan;98466.88;4988176;28;20203;-85
2023/12/31 08:35:33;;;;;;;11.80;6.40;;;;;;;5.00;nan;98480.72;4987140;28;20545;-85
2023/12/31 08:37:59;;;;;;;11.90;6.93;;;;;;;5.01;nan;98476.38;4984177;28;20180;-83
2023/12/31 08:40:24;;;;;;;7.53;6.80;;;;;;;5.04;nan;98460.56;4989088;28;20204;-84
2023/12/31 08:42:50;;;;;;;11.27;7.00;;;;;;;5.08;nan;98462.91;4989993;28;20215;-83
2023/12/31 08:45:15;;;;;;;7.10;6.33;;;;;;;5.15;nan;98462.53;4988187;28;20223;-85
2023/12/31 08:47:41;;;;;;;9.60;6.80;;;;;;;5.17;nan;98453.69;4982882;28;20286;-83
2023/12/31 08:50:11;;;;;;;11.27;6.20;;;;;;;5.20;nan;98448.31;4988720;28;20207;-84
2023/12/31 08:52:46;;;;;;;8.98;7.07;;;;;;;5.26;nan;98441.88;4989519;28;20209;-84
2023/12/31 08:55:12;;;;;;;10.18;6.88;;;;;;;5.31;nan;98434.63;4990221;28;20337;-84
2023/12/31 08:57:40;;;;;;;10.82;8.45;;;;;;;5.35;nan;98430.94;4990717;28;21000;-84
2023/12/31 09:00:07;;;;;;;9.25;7.40;;;;;;;5.42;nan;98440.03;4986949;28;20196;-83
2023/12/31 09:02:32;;;;;;;10.75;8.00;;;;;;;5.51;nan;98430.81;4988242;28;20337;-84
2023/12/31 09:04:58;;;;;;;9.80;7.20;;;;;;;5.60;nan;98432.03;4983750;28;20667;-83
2023/12/31 09:07:23;;;;;;;12.53;9.60;;;;;;;5.67;nan;98443.72;4988657;28;20200;-84
2023/12/31 09:09:49;;;;;;;10.30;9.00;;;;;;;5.73;nan;98444.19;4985355;28;20200;-84
2023/12/31 09:12:14;;;;;;;12.47;9.20;;;;;;;5.77;nan;98440.44;4986894;28;21059;-83
2023/12/31 09:14:40;;;;;;;10.53;8.80;;;;;;;5.79;nan;98416.91;4988450;28;20231;-84
2023/12/31 09:17:05;;;;;;;9.53;6.40;;;;;;;5.85;nan;98415.69;4988624;28;20269;-83
2023/12/31 09:19:31;;;;;;;7.33;5.60;;;;;;;5.95;nan;98402.00;4985997;28;20503;-84
2023/12/31 09:21:56;;;;;;;6.87;5.53;;;;;;;6.30;nan;98387.63;4984012;28;20194;-84
2023/12/31 09:24:22;;;;;;;6.63;5.00;;;;;;;6.69;nan;98378.06;4983703;28;20211;-83
2023/12/31 09:26:47;;;;;;;5.00;4.30;;;;;;;7.13;nan;98363.75;4986092;28;20259;-84
2023/12/31 09:29:14;;;;;;;4.00;3.60;;;;;;;7.54;nan;98363.47;4984755;28;20195;-85
2023/12/31 09:31:39;;;;;;;3.20;2.90;;;;;;;7.91;nan;98361.66;4985205;28;20707;-84
2023/12/31 09:34:05;;;;;;;3.63;2.27;;;;;;;8.21;nan;98365.59;4984158;28;20611;-84
2023/12/31 09:36:31;;;;;;;4.50;2.25;;;;;;;8.48;nan;98357.50;4984504;28;21908;-85
2023/12/31 09:39:00;;;;;;;2.67;2.27;;;;;;;8.72;nan;98362.69;4981353;28;20211;-83
2023/12/31 09:41:26;;;;;;;5.25;2.72;;;;;;;8.91;nan;98367.34;4988152;28;20557;-84
2023/12/31 09:43:56;;;;;;;3.20;2.50;;;;;;;9.07;nan;98370.44;4985621;28;20302;-85
2023/12/31 09:46:22;;;;;;;3.53;2.90;;;;;;;9.20;nan;98353.75;4985077;28;20226;-84
2023/12/31 09:48:53;;;;;;;3.88;3.00;;;;;;;9.30;nan;98359.94;4978876;28;20260;-87
2023/12/31 09:51:19;;;;;;;4.18;3.00;;;;;;;9.38;nan;98368.03;4982895;28;20215;-84
2023/12/31 09:53:46;;;;;;;3.50;3.07;;;;;;;9.38;nan;98362.81;4981877;28;20203;-84
2023/12/31 09:56:13;;;;;;;3.72;3.22;;;;;;;9.36;nan;98369.94;4963735;28;20276;-85
2023/12/31 09:58:39;;;;;;;4.38;3.40;;;;;;;9.33;nan;98375.44;4984949;28;20203;-83
2023/12/31 10:01:04;;;;;;;5.80;3.63;;;;;;;9.29;nan;98367.00;4982472;28;20555;-83
2023/12/31 10:03:33;;;;;;;3.90;3.40;;;;;;;9.27;nan;98368.88;4986625;28;20454;-85
2023/12/31 10:05:59;;;;;;;7.10;4.90;;;;;;;9.28;nan;98370.53;4982514;28;20299;-84
2023/12/31 10:08:25;;;;;;;6.47;5.82;;;;;;;9.29;nan;98368.78;4980884;28;20207;-84
2023/12/31 10:10:53;;;;;;;11.37;7.90;;;;;;;9.33;nan;98382.47;4978928;28;20200;-85
2023/12/31 10:13:19;;;;;;;8.45;5.40;;;;;;;9.36;nan;98396.16;4981853;28;20187;-84
2023/12/31 10:15:47;;;;;;;4.60;4.00;;;;;;;9.46;nan;98399.72;4974002;28;20231;-84
2023/12/31 10:18:13;;;;;;;4.07;3.63;;;;;;;9.50;nan;98406.41;4980051;28;20512;-86
2023/12/31 10:20:38;;;;;;;6.90;3.50;;;;;;;9.51;nan;98415.94;4977992;28;20196;-84
2023/12/31 10:23:06;;;;;;;5.40;4.90;;;;;;;9.53;nan;98447.25;4980107;28;20199;-83
2023/12/31 10:25:32;;;;;;;3.95;2.70;;;;;;;9.59;nan;98472.19;4980723;28;20218;-85
2023/12/31 10:27:57;;;;;;;4.83;2.20;;;;;;;9.72;nan;98485.97;4980548;28;20981;-84
2023/12/31 10:30:23;;;;;;;3.20;2.30;;;;;;;9.98;nan;98504.94;4980696;28;20309;-84
2023/12/31 10:32:49;;;;;;;4.30;2.13;;;;;;;10.19;nan;98524.22;4978980;28;20199;-85
2023/12/31 10:35:19;;;;;;;3.30;2.43;;;;;;;10.35;nan;98533.53;4982899;28;20218;-85
2023/12/31 10:37:45;;;;;;;4.65;2.47;;;;;;;10.46;nan;98545.81;4983764;28;20477;-83
2023/12/31 10:40:20;;;;;;;4.80;1.83;;;;;;;10.54;nan;98553.91;4980950;28;20305;-85
2023/12/31 10:42:58;;;;;;;2.17;1.60;;;;;;;10.54;nan;98552.09;4988651;28;20469;-83
2023/12/31 10:45:24;;;;;;;2.80;1.80;;;;;;;10.51;nan;98560.22;4978946;28;20255;-84
2023/12/31 10:47:52;;;;;;;2.33;1.70;;;;;;;10.46;nan;98566.81;4977753;28;20259;-84
2023/12/31 10:50:28;;;;;;;1.70;1.60;;;;;;;10.36;nan;98567.53;4978979;28;20204;-84
2023/12/31 10:52:57;;;;;;;1.73;1.45;;;;;;;10.29;nan;98573.38;4971395;28;20316;-84
2023/12/31 10:55:24;;;;;;;4.60;1.63;;;;;;;10.19;nan;98565.38;4977165;28;20330;-84
2023/12/31 10:57:51;;;;;;;1.65;1.40;;;;;;;10.10;nan;98574.81;4977284;28;20203;-84
2023/12/31 11:00:18;;;;;;;2.30;1.75;;;;;;;10.02;nan;98590.31;4979281;28;20196;-86
2023/12/31 11:02:44;;;;;;;3.38;2.65;;;;;;;9.98;nan;98592.31;4977549;28;21277;-85
2023/12/31 11:05:10;;;;;;;2.85;2.55;;;;;;;9.94;nan;98611.06;4982011;28;20338;-86
2023/12/31 11:07:36;;;;;;;1.90;1.63;;;;;;;9.89;nan;98621.91;4976481;28;20304;-85
2023/12/31 11:10:02;;;;;;;1.35;1.15;;;;;;;9.86;nan;98626.56;4977560;28;20350;-84
2023/12/31 11:12:28;;;;;;;5.50;2.47;;;;;;;9.80;nan;98632.25;4979488;28;20286;-83
2023/12/31 11:15:11;;;;;;;8.27;4.75;;;;;;;9.74;nan;98630.94;4978936;28;20517;-83
2023/12/31 11:18:14;;;;;;;10.45;4.65;;;;;;;9.67;nan;98635.81;4977869;28;20203;-85
2023/12/31 11:21:04;;;;;;;4.13;2.00;;;;;;;9.60;nan;98639.84;4976153;28;20209;-84
2023/12/31 11:24:02;;;;;;;1.98;1.58;;;;;;;9.56;nan;98641.03;4980150;28;20195;-85
2023/12/31 11:26:28;;;;;;;1.85;1.23;;;;;;;9.51;nan;98641.38;4983564;28;20208;-85
2023/12/31 11:28:54;;;;;;;4.50;1.60;;;;;;;9.52;nan;98650.06;4976020;28;20203;-85
2023/12/31 11:31:20;;;;;;;1.40;1.30;;;;;;;9.55;nan;98654.25;4979212;28;20295;-84
2023/12/31 11:33:45;;;;;;;1.55;1.45;;;;;;;9.50;nan;98654.56;4983761;28;20223;-84
2023/12/31 11:36:12;;;;;;;2.40;1.03;;;;;;;9.48;nan;98646.00;4983412;28;20200;-85
2023/12/31 11:38:56;;;;;;;1.52;1.40;;;;;;;9.44;nan;98660.28;4991179;28;20172;-85
2023/12/31 11:41:47;;;;;;;1.75;1.50;;;;;;;9.36;nan;98671.31;4995288;28;20215;-84
2023/12/31 11:44:36;;;;;;;3.35;1.38;;;;;;;9.26;nan;98660.72;4978469;28;20442;-85
2023/12/31 11:47:01;;;;;;;3.10;1.08;;;;;;;9.20;nan;98653.28;4989759;28;20219;-85
2023/12/31 11:49:27;;;;;;;1.20;0.90;;;;;;;9.13;nan;98661.69;4986090;28;20217;-84
2023/12/31 11:51:54;;;;;;;1.07;0.80;;;;;;;9.07;nan;98655.97;4984684;28;20486;-85
2023/12/31 11:54:37;;;;;;;2.33;1.10;;;;;;;8.99;nan;98668.78;4983948;28;20220;-84